Terminal Aerodrome Forecast
Issued by NWS Tampa Bay Area, FL

Home | Current Version | Previous Version | Text Only | Print | Product List | Glossary On
Versions: 1 2 3 4 5 6 7 8 9 10 11 12 13
000
FTUS42 KTBW 221100
TAFSRQ
TAF
KSRQ 221133Z 2212/2312 10009KT 6SM -RA FEW020 BKN100
     FM221500 18013KT P6SM SCT020 BKN040 OVC100
     FM230000 17005KT 6SM BR SCT020 BKN100=

USA.gov is the U.S. government's official web portal to all federal, state and local government web resources and services.